Time;durP1;ratioP1;P1;durP2;ratioP2;P2;SDS_P1;SDS_P2;PMS_P1;PMS_P2;Temp;Humidity;BMP_temperature;BMP_pressure;BME280_temperature;BME280_humidity;BME280_pressure;Samples;Min_cycle;Max_cycle;Signal;HPM_P1;HPM_P2
2021/08/22 00:01:13;;;;;;;6.15;2.70;;;21.10;95.70;;;;;;4872240;29;20556;-74
2021/08/22 00:03:39;;;;;;;7.35;2.75;;;21.00;95.90;;;;;;4878635;29;20055;-74
2021/08/22 00:06:05;;;;;;;7.65;2.70;;;20.90;96.10;;;;;;4877984;29;20040;-74
2021/08/22 00:08:30;;;;;;;5.03;2.63;;;20.80;97.50;;;;;;4877832;29;20041;-74
2021/08/22 00:10:56;;;;;;;7.95;2.70;;;20.80;97.80;;;;;;4878262;29;20072;-74
2021/08/22 00:13:22;;;;;;;7.10;3.17;;;20.80;98.10;;;;;;4890583;29;20120;-74
2021/08/22 00:15:48;;;;;;;6.75;3.25;;;20.60;98.80;;;;;;4897501;29;20048;-74
2021/08/22 00:18:14;;;;;;;6.60;3.28;;;20.50;98.80;;;;;;4885532;29;20055;-74
2021/08/22 00:20:40;;;;;;;6.82;3.05;;;20.60;99.60;;;;;;4878588;29;20041;-74
2021/08/22 00:23:06;;;;;;;10.15;2.88;;;20.40;99.90;;;;;;4877598;29;20028;-74
2021/08/22 00:25:32;;;;;;;9.70;3.10;;;20.30;99.90;;;;;;4870507;29;20033;-74
2021/08/22 00:27:58;;;;;;;6.53;3.25;;;20.30;99.60;;;;;;4864959;29;20077;-74
2021/08/22 00:30:24;;;;;;;6.97;3.35;;;20.40;99.80;;;;;;4878218;29;20049;-74
2021/08/22 00:32:49;;;;;;;7.68;3.50;;;20.50;99.40;;;;;;4877333;29;20048;-74
2021/08/22 00:35:15;;;;;;;8.82;3.70;;;20.50;99.60;;;;;;4880851;29;20049;-74
2021/08/22 00:37:42;;;;;;;6.78;3.22;;;20.50;99.50;;;;;;4887220;29;20096;-74
2021/08/22 00:40:08;;;;;;;5.10;3.05;;;20.30;99.50;;;;;;4889546;29;20044;-74
2021/08/22 00:42:34;;;;;;;6.28;3.45;;;20.40;99.30;;;;;;4876140;29;20029;-74
2021/08/22 00:45:09;;;;;;;5.57;3.05;;;20.40;99.10;;;;;;4888991;29;20049;-74
2021/08/22 00:47:43;;;;;;;7.35;2.95;;;20.30;99.30;;;;;;4879985;29;20061;-74
2021/08/22 00:50:12;;;;;;;8.90;3.28;;;20.20;99.40;;;;;;4877829;29;20051;-74
2021/08/22 00:52:37;;;;;;;6.45;3.17;;;20.10;99.60;;;;;;4889227;29;20408;-74
2021/08/22 00:55:05;;;;;;;6.15;3.10;;;20.20;99.30;;;;;;4865491;29;20042;-74
2021/08/22 00:57:31;;;;;;;7.20;3.13;;;20.30;99.40;;;;;;4876993;29;20502;-74
2021/08/22 01:00:01;;;;;;;6.55;3.00;;;20.40;99.40;;;;;;4877279;29;20106;-75
2021/08/22 01:02:33;;;;;;;7.85;3.03;;;20.40;99.10;;;;;;4876642;29;20072;-74
2021/08/22 01:05:31;;;;;;;5.57;3.10;;;20.40;99.00;;;;;;4877615;29;20123;-74
2021/08/22 01:08:09;;;;;;;4.80;2.38;;;20.50;99.00;;;;;;4871973;29;20041;-74
2021/08/22 01:10:38;;;;;;;5.90;3.05;;;20.50;99.30;;;;;;4835812;29;20065;-74
2021/08/22 01:13:10;;;;;;;5.00;2.70;;;20.40;99.00;;;;;;4839983;29;20081;-74
2021/08/22 01:15:39;;;;;;;4.32;2.45;;;20.40;99.20;;;;;;4838965;29;20046;-74
2021/08/22 01:18:08;;;;;;;6.30;2.90;;;20.50;98.90;;;;;;4831111;29;20046;-74
2021/08/22 01:21:02;;;;;;;6.43;2.92;;;20.50;98.90;;;;;;4839192;29;20042;-74
2021/08/22 01:23:28;;;;;;;6.10;2.83;;;20.50;98.50;;;;;;4839384;29;20091;-74
2021/08/22 01:25:56;;;;;;;9.05;3.45;;;20.30;99.40;;;;;;4839974;29;20053;-74
2021/08/22 01:28:23;;;;;;;6.10;3.25;;;20.40;99.50;;;;;;4838791;29;20475;-74
2021/08/22 01:30:50;;;;;;;7.82;3.08;;;20.40;99.20;;;;;;4839802;29;20056;-74
2021/08/22 01:33:17;;;;;;;5.72;3.38;;;20.40;99.30;;;;;;4839964;29;20113;-74
2021/08/22 01:35:45;;;;;;;4.22;2.58;;;20.40;99.50;;;;;;4828350;29;20042;-74
2021/08/22 01:38:13;;;;;;;6.20;3.22;;;20.40;99.70;;;;;;4839239;29;20044;-74
2021/08/22 01:40:41;;;;;;;8.32;3.22;;;20.40;99.90;;;;;;4840008;29;20046;-74
2021/08/22 01:43:07;;;;;;;5.85;2.67;;;20.30;99.90;;;;;;4838615;29;20034;-74
2021/08/22 01:45:34;;;;;;;7.43;3.13;;;20.40;99.90;;;;;;4839502;29;20114;-74
2021/08/22 01:48:00;;;;;;;7.10;3.20;;;20.50;99.90;;;;;;4838798;29;20069;-74
2021/08/22 01:50:26;;;;;;;7.63;4.00;;;20.40;99.90;;;;;;4829621;29;20502;-74
2021/08/22 01:52:57;;;;;;;5.20;3.05;;;20.30;99.90;;;;;;4832568;29;20034;-74
2021/08/22 01:55:23;;;;;;;5.38;3.15;;;20.40;99.90;;;;;;4837847;29;20046;-74
2021/08/22 01:57:48;;;;;;;6.55;3.45;;;20.20;99.90;;;;;;4832976;29;20436;-74
2021/08/22 02:00:14;;;;;;;6.00;3.25;;;20.10;99.90;;;;;;4838679;29;20065;-74
2021/08/22 02:02:49;;;;;;;6.75;3.15;;;20.20;99.90;;;;;;4839288;29;20041;-74
2021/08/22 02:05:16;;;;;;;4.90;2.80;;;20.30;99.90;;;;;;4838668;29;20125;-74
2021/08/22 02:07:43;;;;;;;5.82;3.17;;;20.10;99.90;;;;;;4839557;29;20045;-74
2021/08/22 02:10:18;;;;;;;8.45;3.45;;;20.20;99.90;;;;;;4865597;29;20060;-74
2021/08/22 02:12:47;;;;;;;6.15;3.90;;;20.10;99.90;;;;;;4868506;29;20373;-74
2021/08/22 02:15:21;;;;;;;10.05;3.50;;;20.10;99.90;;;;;;4875329;29;20052;-74
2021/08/22 02:18:06;;;;;;;7.10;3.10;;;20.20;99.90;;;;;;4876192;29;20115;-74
2021/08/22 02:20:33;;;;;;;6.75;3.20;;;20.20;99.90;;;;;;4871569;29;20049;-74
2021/08/22 02:23:01;;;;;;;7.20;3.22;;;20.20;99.90;;;;;;4876130;29;20041;-74
2021/08/22 02:25:30;;;;;;;5.60;3.58;;;20.20;99.90;;;;;;4876035;29;20527;-74
2021/08/22 02:27:57;;;;;;;7.20;3.83;;;19.90;99.90;;;;;;4875829;29;20025;-75
2021/08/22 02:30:22;;;;;;;7.30;3.38;;;20.00;99.90;;;;;;4875236;29;20117;-74
2021/08/22 02:32:48;;;;;;;5.93;3.22;;;20.10;99.90;;;;;;4875988;29;20053;-74
2021/08/22 02:35:14;;;;;;;6.80;3.17;;;20.00;99.90;;;;;;4881094;29;20044;-74
2021/08/22 02:37:40;;;;;;;7.82;3.47;;;19.90;99.90;;;;;;4894377;29;20055;-75
2021/08/22 02:40:06;;;;;;;6.10;3.28;;;19.90;99.90;;;;;;4889735;29;20404;-74
2021/08/22 02:42:32;;;;;;;6.88;3.40;;;20.00;99.90;;;;;;4875779;29;20084;-74
2021/08/22 02:44:58;;;;;;;6.90;3.42;;;20.00;99.90;;;;;;4875413;29;20073;-74
2021/08/22 02:47:23;;;;;;;10.40;3.60;;;20.10;99.90;;;;;;4875232;29;20650;-74
2021/08/22 02:49:49;;;;;;;5.80;3.22;;;20.10;99.90;;;;;;4875985;29;20074;-74
2021/08/22 02:52:14;;;;;;;7.40;2.95;;;20.10;99.90;;;;;;4875320;29;20049;-74
2021/08/22 02:54:40;;;;;;;6.20;3.42;;;20.00;99.90;;;;;;4876094;29;20560;-74
2021/08/22 02:57:06;;;;;;;6.65;3.00;;;20.00;99.90;;;;;;4875935;29;20049;-74
2021/08/22 02:59:31;;;;;;;5.25;2.60;;;20.00;99.90;;;;;;4875253;29;20041;-74
2021/08/22 03:01:57;;;;;;;7.47;3.10;;;20.00;99.90;;;;;;4871106;29;20498;-74
2021/08/22 03:04:23;;;;;;;6.13;3.65;;;20.10;99.90;;;;;;4857206;29;20117;-74
2021/08/22 03:06:48;;;;;;;8.52;3.38;;;20.10;99.90;;;;;;4855845;29;20049;-74
2021/08/22 03:09:14;;;;;;;5.93;3.20;;;20.10;99.90;;;;;;4864319;29;20084;-74
2021/08/22 03:11:39;;;;;;;8.30;3.17;;;20.00;99.90;;;;;;4863949;29;20408;-74
2021/08/22 03:14:05;;;;;;;5.78;2.97;;;20.00;99.90;;;;;;4875486;29;20041;-74
2021/08/22 03:16:31;;;;;;;5.22;3.10;;;20.10;99.90;;;;;;4874509;29;20433;-74
2021/08/22 03:18:56;;;;;;;7.53;3.33;;;20.10;99.90;;;;;;4874967;29;20572;-74
2021/08/22 03:21:22;;;;;;;5.47;3.28;;;20.10;99.90;;;;;;4874170;29;20160;-74
2021/08/22 03:23:48;;;;;;;5.47;3.00;;;20.10;99.90;;;;;;4892788;29;20449;-74
2021/08/22 03:26:14;;;;;;;8.00;3.28;;;20.20;99.90;;;;;;4879583;29;20144;-74
2021/08/22 03:28:39;;;;;;;5.45;2.72;;;20.10;99.90;;;;;;4862689;29;20042;-74
2021/08/22 03:31:05;;;;;;;7.28;3.20;;;20.10;99.90;;;;;;4874575;29;20041;-74
2021/08/22 03:33:31;;;;;;;7.55;3.40;;;20.00;99.90;;;;;;4874407;29;20059;-74
2021/08/22 03:35:56;;;;;;;6.80;3.13;;;20.00;99.90;;;;;;4863734;29;20525;-74
2021/08/22 03:38:22;;;;;;;6.53;3.60;;;20.00;99.90;;;;;;4871258;29;20792;-74
2021/08/22 03:40:48;;;;;;;5.40;3.17;;;20.10;99.90;;;;;;4874873;29;20045;-74
2021/08/22 03:43:13;;;;;;;7.43;3.30;;;20.10;99.90;;;;;;4874211;29;20080;-74
2021/08/22 03:45:39;;;;;;;8.98;4.07;;;19.90;99.90;;;;;;4874882;29;20053;-74
2021/08/22 03:48:05;;;;;;;6.15;3.42;;;20.00;99.90;;;;;;4874297;29;20049;-74
2021/08/22 03:50:31;;;;;;;5.63;3.25;;;20.10;99.90;;;;;;4875284;29;20045;-74
2021/08/22 03:52:56;;;;;;;7.22;3.38;;;20.10;99.90;;;;;;4866912;29;20397;-74
2021/08/22 03:55:22;;;;;;;8.30;3.75;;;20.10;99.90;;;;;;4867327;29;20052;-74
2021/08/22 03:57:48;;;;;;;7.85;2.90;;;20.00;99.90;;;;;;4861729;29;20124;-74
2021/08/22 04:00:15;;;;;;;6.82;2.97;;;20.10;99.90;;;;;;4867046;29;20120;-74
2021/08/22 04:02:41;;;;;;;12.88;3.75;;;20.10;99.90;;;;;;4866372;29;20101;-74
2021/08/22 04:05:09;;;;;;;7.03;3.47;;;20.00;99.90;;;;;;4867403;29;20392;-75
2021/08/22 04:07:35;;;;;;;5.25;3.15;;;20.00;99.90;;;;;;4866182;29;20447;-74
2021/08/22 04:10:02;;;;;;;7.90;3.53;;;20.00;99.90;;;;;;4870963;29;20060;-74
2021/08/22 04:12:29;;;;;;;8.23;3.53;;;20.00;99.90;;;;;;4855728;29;20065;-74
2021/08/22 04:14:54;;;;;;;5.93;3.08;;;19.90;99.90;;;;;;4872573;29;20483;-74
2021/08/22 04:17:20;;;;;;;9.20;3.45;;;20.00;99.90;;;;;;4874660;29;20111;-74
2021/08/22 04:19:46;;;;;;;9.45;3.40;;;20.00;99.90;;;;;;4877250;29;20045;-74
2021/08/22 04:22:11;;;;;;;7.68;3.20;;;19.90;99.90;;;;;;4878112;29;20056;-74
2021/08/22 04:24:37;;;;;;;8.23;3.72;;;19.80;99.90;;;;;;4877758;29;20033;-74
2021/08/22 04:27:04;;;;;;;7.85;3.33;;;19.80;99.90;;;;;;4878339;29;20045;-74
2021/08/22 04:29:32;;;;;;;6.53;3.28;;;19.80;99.90;;;;;;4877125;29;20036;-74
2021/08/22 04:31:58;;;;;;;6.13;3.30;;;19.90;99.90;;;;;;4862999;29;20619;-74
2021/08/22 04:34:23;;;;;;;7.55;3.63;;;19.80;99.90;;;;;;4877029;29;20049;-74
2021/08/22 04:36:49;;;;;;;6.25;3.35;;;19.80;99.90;;;;;;4878321;29;20057;-74
2021/08/22 04:39:15;;;;;;;5.47;3.42;;;19.70;99.90;;;;;;4881374;29;20042;-74
2021/08/22 04:41:45;;;;;;;8.45;3.55;;;19.80;99.90;;;;;;4897099;29;20072;-74
2021/08/22 04:44:12;;;;;;;6.82;3.30;;;19.70;99.90;;;;;;4893562;29;20077;-74
2021/08/22 04:46:37;;;;;;;6.53;3.90;;;19.50;99.90;;;;;;4869007;29;20397;-74
2021/08/22 04:49:03;;;;;;;7.22;3.28;;;19.50;99.90;;;;;;4862393;29;20037;-74
2021/08/22 04:51:29;;;;;;;8.23;3.88;;;19.60;99.90;;;;;;4870662;29;20129;-74
2021/08/22 04:53:56;;;;;;;7.63;3.80;;;19.70;99.90;;;;;;4877758;29;20073;-74
2021/08/22 04:56:22;;;;;;;7.03;3.33;;;19.60;99.90;;;;;;4876901;29;20045;-74
2021/08/22 04:58:48;;;;;;;8.02;3.45;;;19.60;99.90;;;;;;4877444;29;20564;-74
2021/08/22 05:01:14;;;;;;;6.20;3.65;;;19.60;99.90;;;;;;4876147;29;20133;-74
2021/08/22 05:03:40;;;;;;;8.13;4.05;;;19.60;99.90;;;;;;4876526;29;20128;-74
2021/08/22 05:06:05;;;;;;;6.15;3.63;;;19.70;99.90;;;;;;4863762;29;20120;-74
2021/08/22 05:08:31;;;;;;;8.82;3.70;;;19.70;99.90;;;;;;4877323;29;20109;-74
2021/08/22 05:10:57;;;;;;;5.57;3.88;;;19.70;99.90;;;;;;4876724;29;20056;-74
2021/08/22 05:13:23;;;;;;;8.80;3.90;;;19.70;99.90;;;;;;4877588;29;20072;-74
2021/08/22 05:15:50;;;;;;;5.90;3.60;;;19.70;99.90;;;;;;4876446;29;20645;-75
2021/08/22 05:18:17;;;;;;;7.95;3.78;;;19.60;99.90;;;;;;4877407;29;20045;-74
2021/08/22 05:20:43;;;;;;;11.35;3.85;;;19.70;99.90;;;;;;4875531;29;20037;-74
2021/08/22 05:23:09;;;;;;;7.97;4.30;;;19.70;99.90;;;;;;4876085;29;20047;-74
2021/08/22 05:25:35;;;;;;;7.20;3.55;;;19.70;99.90;;;;;;4861234;29;20162;-74
2021/08/22 05:28:00;;;;;;;5.80;3.65;;;19.70;99.90;;;;;;4873682;29;20052;-74
2021/08/22 05:30:26;;;;;;;5.80;3.20;;;19.60;99.90;;;;;;4876130;29;20124;-74
2021/08/22 05:32:52;;;;;;;7.30;3.60;;;19.70;99.90;;;;;;4876479;29;20060;-74
2021/08/22 05:35:17;;;;;;;7.50;3.65;;;19.80;99.90;;;;;;4877143;29;20606;-74
2021/08/22 05:37:43;;;;;;;6.40;3.38;;;19.80;99.90;;;;;;4869897;29;20064;-74
2021/08/22 05:40:09;;;;;;;8.73;3.60;;;19.80;99.90;;;;;;4877030;29;20582;-74
2021/08/22 05:42:35;;;;;;;7.13;4.03;;;19.70;99.90;;;;;;4875630;29;20029;-74
2021/08/22 05:45:01;;;;;;;11.98;3.63;;;19.70;99.90;;;;;;4876798;29;20393;-75
2021/08/22 05:47:26;;;;;;;8.05;3.72;;;19.60;99.90;;;;;;4874714;29;20044;-74
2021/08/22 05:49:52;;;;;;;8.82;3.90;;;19.60;99.90;;;;;;4874216;29;20512;-74
2021/08/22 05:52:18;;;;;;;5.65;3.50;;;19.80;99.90;;;;;;4875654;29;20052;-74
2021/08/22 05:54:43;;;;;;;9.65;3.72;;;19.80;99.90;;;;;;4875635;29;20915;-74
2021/08/22 05:57:09;;;;;;;9.18;4.28;;;19.80;99.90;;;;;;4876614;29;20500;-74
2021/08/22 05:59:35;;;;;;;9.48;4.40;;;19.80;99.90;;;;;;4870197;29;20720;-74
2021/08/22 06:02:01;;;;;;;7.88;4.13;;;19.90;99.90;;;;;;4875876;29;20746;-74
2021/08/22 06:04:27;;;;;;;8.38;4.63;;;19.90;99.90;;;;;;4871179;29;20073;-74
2021/08/22 06:06:53;;;;;;;7.65;4.32;;;20.00;99.90;;;;;;4876292;29;20045;-74
2021/08/22 06:09:18;;;;;;;10.35;4.35;;;20.00;99.90;;;;;;4876194;29;20057;-74
2021/08/22 06:11:44;;;;;;;7.95;4.00;;;20.10;99.90;;;;;;4871631;29;20052;-75
2021/08/22 06:14:10;;;;;;;9.02;4.30;;;20.20;99.90;;;;;;4869201;29;20109;-74
2021/08/22 06:16:35;;;;;;;7.13;4.22;;;20.30;99.90;;;;;;4874732;29;20132;-74
2021/08/22 06:19:01;;;;;;;7.82;4.07;;;20.40;99.90;;;;;;4874537;29;20124;-74
2021/08/22 06:21:27;;;;;;;11.43;4.47;;;20.40;99.90;;;;;;4870956;29;20048;-74
2021/08/22 06:23:57;;;;;;;9.80;4.47;;;20.50;99.90;;;;;;4868762;29;20049;-75
2021/08/22 06:26:27;;;;;;;7.78;3.78;;;20.70;99.90;;;;;;4869558;29;20048;-74
2021/08/22 06:28:53;;;;;;;7.13;4.03;;;20.80;99.90;;;;;;4874926;29;20089;-74
2021/08/22 06:31:19;;;;;;;8.40;3.88;;;20.80;99.90;;;;;;4861855;29;20049;-74
2021/08/22 06:33:45;;;;;;;9.60;3.75;;;20.80;99.90;;;;;;4863443;29;20037;-74
2021/08/22 06:36:12;;;;;;;7.45;3.88;;;20.80;99.90;;;;;;4872699;29;20044;-76
2021/08/22 06:38:38;;;;;;;6.68;3.78;;;20.90;99.90;;;;;;4869392;29;20076;-75
2021/08/22 06:41:04;;;;;;;7.10;4.07;;;20.90;99.90;;;;;;4866363;29;20131;-75
2021/08/22 06:43:29;;;;;;;7.90;3.67;;;20.90;99.90;;;;;;4864981;29;20042;-75
2021/08/22 06:45:55;;;;;;;8.18;4.22;;;20.90;99.90;;;;;;4874984;29;20041;-76
2021/08/22 06:48:21;;;;;;;7.43;4.13;;;21.00;99.90;;;;;;4871703;29;20691;-75
2021/08/22 06:50:48;;;;;;;9.48;4.65;;;21.00;99.90;;;;;;4861101;29;20049;-75
2021/08/22 06:53:14;;;;;;;7.43;4.13;;;21.00;99.90;;;;;;4867277;29;20030;-75
2021/08/22 06:55:42;;;;;;;8.15;3.80;;;20.90;99.90;;;;;;4871239;29;20472;-75
2021/08/22 06:58:08;;;;;;;9.18;4.43;;;20.90;99.90;;;;;;4871327;29;20493;-75
2021/08/22 07:00:34;;;;;;;7.57;3.83;;;21.00;99.90;;;;;;4871663;29;20045;-75
2021/08/22 07:03:00;;;;;;;6.50;4.00;;;21.30;99.90;;;;;;4866626;29;20773;-75
2021/08/22 07:05:26;;;;;;;6.22;3.65;;;21.50;99.90;;;;;;4867182;29;20041;-75
2021/08/22 07:07:52;;;;;;;8.43;4.00;;;21.70;99.90;;;;;;4865500;29;20479;-75
2021/08/22 07:10:17;;;;;;;6.75;3.22;;;21.90;99.90;;;;;;4869339;29;20127;-75
2021/08/22 07:12:43;;;;;;;9.43;4.03;;;22.00;99.90;;;;;;4869887;29;20181;-75
2021/08/22 07:15:11;;;;;;;8.30;4.10;;;22.20;99.90;;;;;;4870569;29;20525;-75
2021/08/22 07:17:37;;;;;;;7.25;4.10;;;22.30;99.90;;;;;;4869719;29;20053;-75
2021/08/22 07:20:03;;;;;;;7.13;4.55;;;22.30;99.90;;;;;;4869122;29;20048;-75
2021/08/22 07:22:28;;;;;;;7.38;4.32;;;22.40;99.90;;;;;;4869840;29;20481;-75
2021/08/22 07:24:54;;;;;;;7.20;4.43;;;22.40;99.90;;;;;;4865532;29;20070;-76
2021/08/22 07:27:20;;;;;;;9.13;4.20;;;22.20;99.90;;;;;;4866975;29;20047;-75
2021/08/22 07:29:46;;;;;;;7.57;4.35;;;22.20;99.90;;;;;;4867456;29;20041;-75
2021/08/22 07:32:12;;;;;;;7.45;4.15;;;22.20;99.90;;;;;;4865324;29;20049;-75
2021/08/22 07:34:38;;;;;;;9.32;4.25;;;22.20;99.90;;;;;;4871570;29;20044;-75
2021/08/22 07:37:04;;;;;;;8.57;4.53;;;22.20;99.90;;;;;;4874022;29;20045;-75
2021/08/22 07:39:30;;;;;;;8.25;3.88;;;22.10;99.90;;;;;;4865813;29;20064;-75
2021/08/22 07:41:55;;;;;;;9.25;4.30;;;22.10;99.90;;;;;;4868454;29;20485;-75
2021/08/22 07:44:21;;;;;;;11.27;4.22;;;22.10;99.90;;;;;;4869178;29;20055;-75
2021/08/22 07:46:48;;;;;;;8.60;4.10;;;21.90;99.90;;;;;;4866278;29;20049;-75
2021/08/22 07:49:15;;;;;;;7.07;3.75;;;21.70;99.90;;;;;;4866086;29;20042;-75
2021/08/22 07:51:41;;;;;;;6.75;4.10;;;21.50;99.90;;;;;;4867116;29;20117;-75
2021/08/22 07:54:06;;;;;;;8.18;3.90;;;21.50;99.90;;;;;;4872530;29;20074;-75
2021/08/22 07:56:32;;;;;;;6.47;3.80;;;21.60;99.90;;;;;;4872984;29;20113;-75
2021/08/22 07:58:57;;;;;;;12.13;4.20;;;21.70;99.90;;;;;;4875862;29;20040;-75
2021/08/22 08:01:23;;;;;;;8.13;4.68;;;21.90;99.90;;;;;;4874806;29;20437;-75
2021/08/22 08:03:49;;;;;;;7.47;3.83;;;21.90;99.90;;;;;;4874487;29;20033;-75
2021/08/22 08:06:14;;;;;;;12.88;4.13;;;21.90;99.90;;;;;;4875678;29;20049;-75
2021/08/22 08:08:40;;;;;;;9.98;4.88;;;21.90;99.90;;;;;;4860558;29;20076;-75
2021/08/22 08:11:05;;;;;;;6.10;4.10;;;21.90;99.90;;;;;;4876901;29;20178;-75
2021/08/22 08:13:31;;;;;;;7.35;4.03;;;22.00;99.90;;;;;;4867872;29;20041;-75
2021/08/22 08:15:57;;;;;;;6.78;3.50;;;22.20;99.90;;;;;;4877639;29;20104;-75
2021/08/22 08:18:22;;;;;;;6.10;4.40;;;22.30;99.90;;;;;;4874981;29;20109;-75
2021/08/22 08:20:48;;;;;;;7.50;3.90;;;22.40;99.90;;;;;;4875273;29;20049;-75
2021/08/22 08:23:13;;;;;;;8.98;4.43;;;22.50;99.90;;;;;;4874506;29;20037;-74
2021/08/22 08:25:39;;;;;;;8.48;4.35;;;22.50;99.90;;;;;;4872731;29;20049;-75
2021/08/22 08:28:05;;;;;;;7.60;3.97;;;22.70;99.90;;;;;;4877189;29;20405;-75
2021/08/22 08:30:31;;;;;;;7.70;4.40;;;22.70;99.90;;;;;;4865803;29;20037;-75
2021/08/22 08:32:57;;;;;;;8.13;4.22;;;22.50;99.90;;;;;;4876402;29;20061;-75
2021/08/22 08:35:22;;;;;;;7.90;4.82;;;22.50;99.90;;;;;;4877340;29;20037;-75
2021/08/22 08:37:48;;;;;;;6.43;4.30;;;22.30;99.90;;;;;;4864089;29;20045;-75
2021/08/22 08:40:18;;;;;;;7.30;5.03;;;22.70;99.90;;;;;;4875716;29;20500;-75
2021/08/22 08:42:51;;;;;;;9.10;4.15;;;22.70;99.90;;;;;;4876035;29;20037;-75
2021/08/22 08:45:36;;;;;;;8.40;4.28;;;22.70;99.90;;;;;;4867725;29;20033;-75
2021/08/22 08:48:02;;;;;;;8.07;5.00;;;22.70;99.90;;;;;;4872066;29;20461;-75
2021/08/22 08:50:40;;;;;;;9.75;5.22;;;22.60;99.90;;;;;;4873665;29;20045;-75
2021/08/22 08:53:08;;;;;;;8.60;4.47;;;22.60;99.90;;;;;;4868941;29;20049;-75
2021/08/22 08:55:39;;;;;;;7.45;4.28;;;22.70;99.90;;;;;;4873662;29;20428;-75
2021/08/22 08:58:04;;;;;;;6.53;4.30;;;22.70;99.90;;;;;;4873938;29;20434;-75
2021/08/22 09:00:35;;;;;;;8.35;4.47;;;22.90;99.90;;;;;;4869851;29;20053;-75
2021/08/22 09:03:02;;;;;;;6.75;4.30;;;23.00;99.90;;;;;;4866494;29;20038;-75
2021/08/22 09:05:43;;;;;;;7.63;4.35;;;23.00;99.90;;;;;;4875055;29;20033;-75
2021/08/22 09:08:30;;;;;;;7.50;4.47;;;22.80;99.90;;;;;;4875561;29;20617;-75
2021/08/22 09:11:20;;;;;;;7.45;4.65;;;23.10;99.90;;;;;;4865871;29;21098;-75
2021/08/22 09:14:23;;;;;;;9.23;4.93;;;23.10;99.90;;;;;;4866629;29;20045;-75
2021/08/22 09:17:10;;;;;;;8.00;4.63;;;23.40;99.90;;;;;;4861328;29;20060;-75
2021/08/22 09:20:07;;;;;;;7.65;4.38;;;23.40;99.90;;;;;;4871699;29;20062;-75
2021/08/22 09:23:09;;;;;;;10.40;4.43;;;23.50;99.90;;;;;;4867307;29;20497;-75
2021/08/22 09:26:12;;;;;;;9.18;4.82;;;23.40;99.90;;;;;;4866241;29;20049;-75
2021/08/22 09:28:50;;;;;;;9.88;4.63;;;23.50;99.90;;;;;;4870274;29;20041;-75
2021/08/22 09:31:46;;;;;;;8.57;5.15;;;23.50;99.90;;;;;;4872694;29;20145;-75
2021/08/22 09:35:03;;;;;;;7.88;4.72;;;23.50;99.90;;;;;;4873891;29;20546;-75
2021/08/22 09:37:29;;;;;;;7.10;4.40;;;23.50;99.90;;;;;;4826709;29;20056;-75
2021/08/22 09:40:32;;;;;;;8.48;4.78;;;23.70;99.90;;;;;;4871898;29;20492;-75
2021/08/22 09:43:32;;;;;;;7.93;4.95;;;23.70;99.90;;;;;;4874109;29;20091;-75
2021/08/22 09:46:42;;;;;;;8.50;4.30;;;23.50;99.90;;;;;;4852969;29;20041;-75
2021/08/22 09:49:38;;;;;;;9.20;4.65;;;23.60;99.90;;;;;;4863272;29;20049;-75
2021/08/22 09:52:38;;;;;;;7.40;4.47;;;23.60;99.90;;;;;;4874607;29;20187;-75
2021/08/22 09:55:22;;;;;;;8.02;4.90;;;23.50;99.90;;;;;;4875127;29;20128;-75
2021/08/22 09:58:44;;;;;;;7.75;4.40;;;23.40;99.90;;;;;;4871468;29;20041;-75
2021/08/22 10:01:25;;;;;;;;;;;23.60;99.90;;;;;;4780586;30;20470;-75
2021/08/22 10:04:09;;;;;;;7.15;4.50;;;23.60;99.90;;;;;;4777111;29;19924;-75
2021/08/22 10:07:08;;;;;;;7.65;4.40;;;23.80;99.90;;;;;;4853565;29;20393;-75
2021/08/22 10:09:50;;;;;;;8.82;4.15;;;24.00;99.90;;;;;;4869043;29;20060;-75
2021/08/22 10:12:17;;;;;;;7.20;4.32;;;24.00;99.70;;;;;;4871823;29;20033;-75
2021/08/22 10:14:43;;;;;;;7.82;4.20;;;24.00;99.90;;;;;;4873536;29;20045;-75
2021/08/22 10:17:22;;;;;;;6.85;4.40;;;24.10;99.90;;;;;;4871045;29;20496;-75
2021/08/22 10:19:51;;;;;;;6.28;4.40;;;24.20;99.90;;;;;;4872927;29;20052;-75
2021/08/22 10:22:18;;;;;;;7.75;4.13;;;24.20;99.90;;;;;;4868590;29;20037;-75
2021/08/22 10:24:57;;;;;;;10.27;3.80;;;24.40;99.50;;;;;;4872234;29;20040;-75
2021/08/22 10:27:35;;;;;;;5.80;4.30;;;24.50;98.90;;;;;;4875041;29;20041;-75
2021/08/22 10:30:04;;;;;;;7.57;4.55;;;24.30;99.00;;;;;;4876230;29;20072;-75
2021/08/22 10:32:30;;;;;;;8.45;4.43;;;24.50;99.50;;;;;;4872017;29;20075;-75
2021/08/22 10:35:11;;;;;;;8.00;3.92;;;24.70;98.60;;;;;;4875114;29;20045;-75
2021/08/22 10:37:38;;;;;;;8.40;4.40;;;24.70;97.80;;;;;;4864191;29;20534;-76
2021/08/22 10:40:25;;;;;;;8.52;4.15;;;24.70;98.10;;;;;;4873101;29;20146;-75
2021/08/22 10:42:57;;;;;;;6.05;4.32;;;24.90;98.50;;;;;;4874735;29;20492;-75
2021/08/22 10:45:45;;;;;;;8.93;4.20;;;24.90;98.20;;;;;;4873037;29;20181;-75
2021/08/22 10:48:11;;;;;;;8.35;4.38;;;24.80;98.00;;;;;;4867710;29;20525;-75
2021/08/22 10:50:58;;;;;;;11.55;3.88;;;24.90;98.10;;;;;;4872660;29;20041;-75
2021/08/22 10:53:28;;;;;;;6.72;4.03;;;25.00;98.30;;;;;;4871232;29;20048;-75
2021/08/22 10:55:55;;;;;;;7.80;3.97;;;25.20;97.80;;;;;;4873591;29;20044;-75
2021/08/22 10:58:40;;;;;;;7.82;3.75;;;24.90;97.80;;;;;;4872973;29;20072;-75
2021/08/22 11:01:18;;;;;;;9.77;4.00;;;24.80;97.70;;;;;;4871750;29;20053;-75
2021/08/22 11:04:03;;;;;;;4.72;3.10;;;25.00;97.90;;;;;;4875441;29;20489;-75
2021/08/22 11:06:29;;;;;;;6.22;3.75;;;25.00;97.80;;;;;;4873534;29;20493;-75
2021/08/22 11:08:55;;;;;;;5.43;3.20;;;24.90;97.80;;;;;;4874756;29;20056;-75
2021/08/22 11:11:20;;;;;;;6.43;3.42;;;25.00;97.90;;;;;;4874824;29;20565;-75
2021/08/22 11:13:54;;;;;;;6.60;3.80;;;25.10;97.90;;;;;;4868704;29;20053;-75
2021/08/22 11:16:20;;;;;;;5.43;3.22;;;25.20;98.00;;;;;;4863543;29;20056;-75
2021/08/22 11:18:47;;;;;;;9.57;3.92;;;25.20;97.60;;;;;;4873289;29;20049;-75
2021/08/22 11:21:12;;;;;;;9.02;4.20;;;25.30;97.60;;;;;;4873767;29;20037;-75
2021/08/22 11:23:38;;;;;;;6.22;3.78;;;25.20;97.60;;;;;;4874395;29;20643;-75
2021/08/22 11:26:07;;;;;;;6.57;4.03;;;25.10;97.70;;;;;;4867285;29;20050;-75
2021/08/22 11:28:34;;;;;;;6.53;4.13;;;25.30;97.70;;;;;;4875353;29;20052;-75
2021/08/22 11:30:59;;;;;;;7.30;3.78;;;25.40;97.60;;;;;;4881259;29;20037;-75
2021/08/22 11:33:29;;;;;;;7.20;3.70;;;25.50;97.80;;;;;;4880318;29;20048;-75
2021/08/22 11:35:55;;;;;;;8.95;4.60;;;25.40;97.40;;;;;;4881277;29;20112;-75
2021/08/22 11:38:21;;;;;;;6.57;3.30;;;25.50;97.40;;;;;;4876026;29;20076;-75
2021/08/22 11:40:46;;;;;;;6.47;3.95;;;25.50;96.90;;;;;;4877578;29;20117;-75
2021/08/22 11:43:14;;;;;;;15.70;10.93;;;25.40;97.10;;;;;;4870169;29;20079;-75
2021/08/22 11:45:42;;;;;;;14.20;6.82;;;25.60;97.50;;;;;;4877712;29;20056;-75
2021/08/22 11:48:16;;;;;;;8.88;5.00;;;25.70;96.70;;;;;;4875999;29;20472;-75
2021/08/22 11:50:42;;;;;;;6.97;4.43;;;25.70;96.60;;;;;;4876551;29;20037;-75
2021/08/22 11:53:08;;;;;;;8.27;4.07;;;25.70;96.30;;;;;;4875306;29;20045;-75
2021/08/22 11:55:37;;;;;;;7.50;4.13;;;25.70;96.10;;;;;;4867598;29;20093;-75
2021/08/22 11:58:11;;;;;;;5.90;3.90;;;25.70;96.20;;;;;;4876255;29;20056;-75
2021/08/22 12:00:45;;;;;;;8.68;4.15;;;25.70;96.20;;;;;;4873060;29;20053;-75
2021/08/22 12:03:15;;;;;;;6.68;3.63;;;25.70;96.10;;;;;;4869599;29;20397;-75
2021/08/22 12:06:20;;;;;;;5.95;3.45;;;25.60;96.00;;;;;;4881183;29;20515;-75
2021/08/22 12:08:48;;;;;;;7.20;4.07;;;25.60;96.20;;;;;;4868850;29;20064;-75
2021/08/22 12:11:22;;;;;;;5.90;3.55;;;25.60;96.10;;;;;;4879802;29;20041;-75
2021/08/22 12:13:49;;;;;;;5.55;3.60;;;25.40;96.00;;;;;;4874207;29;20045;-75
2021/08/22 12:16:26;;;;;;;8.88;3.92;;;25.40;96.10;;;;;;4865880;29;20044;-75
2021/08/22 12:18:52;;;;;;;6.85;3.88;;;25.50;95.90;;;;;;4875396;29;20045;-75
2021/08/22 12:21:21;;;;;;;5.65;3.78;;;25.40;95.70;;;;;;4878743;29;20454;-75
2021/08/22 12:23:49;;;;;;;7.03;3.72;;;25.30;95.80;;;;;;4874531;29;20044;-76
2021/08/22 12:26:22;;;;;;;7.85;4.15;;;25.30;95.40;;;;;;4865358;29;20038;-75
2021/08/22 12:28:50;;;;;;;8.95;3.47;;;25.20;95.60;;;;;;4876882;29;20041;-75
2021/08/22 12:31:16;;;;;;;5.30;3.85;;;25.00;95.80;;;;;;4871786;29;20448;-75
2021/08/22 12:33:44;;;;;;;6.97;4.63;;;25.20;96.00;;;;;;4877591;29;20152;-75
2021/08/22 12:36:18;;;;;;;8.35;3.78;;;25.30;96.20;;;;;;4880411;29;20045;-75
2021/08/22 12:38:47;;;;;;;8.48;4.30;;;25.30;96.30;;;;;;4872652;29;20049;-75
2021/08/22 12:41:32;;;;;;;6.18;4.13;;;25.30;96.50;;;;;;4870421;29;20081;-75
2021/08/22 12:44:01;;;;;;;7.70;3.97;;;25.40;96.60;;;;;;4876315;29;20049;-75
2021/08/22 12:46:28;;;;;;;7.82;4.35;;;25.60;96.10;;;;;;4875172;29;20104;-75
2021/08/22 12:48:54;;;;;;;5.75;3.80;;;25.50;95.80;;;;;;4865686;29;20045;-76
2021/08/22 12:51:21;;;;;;;7.45;3.72;;;25.70;96.20;;;;;;4876165;29;20037;-75
2021/08/22 12:53:48;;;;;;;6.07;3.55;;;25.70;95.60;;;;;;4863456;29;20532;-75
2021/08/22 12:56:14;;;;;;;7.22;3.50;;;25.70;95.50;;;;;;4870687;29;20153;-75
2021/08/22 12:58:39;;;;;;;6.78;4.18;;;25.80;95.70;;;;;;4873433;29;20148;-75